Time;durP1;ratioP1;P1;durP2;ratioP2;P2;SDS_P1;SDS_P2;PMS_P1;PMS_P2;Temp;Humidity;BMP_temperature;BMP_pressure;BME280_temperature;BME280_humidity;BME280_pressure;Samples;Min_cycle;Max_cycle;Signal;HPM_P1;HPM_P2
2022/07/27 00:01:56;;;;;;;2.88;0.90;;;;;;;;;;5084879;28;20546;-74
2022/07/27 00:04:22;;;;;;;5.78;0.75;;;;;;;;;;5079996;28;20042;-74
2022/07/27 00:06:48;;;;;;;4.35;0.90;;;;;;;;;;5084254;28;20054;-74
2022/07/27 00:09:14;;;;;;;4.38;0.70;;;;;;;;;;5084059;28;20074;-74
2022/07/27 00:11:40;;;;;;;5.20;0.80;;;;;;;;;;5084801;28;20039;-74
2022/07/27 00:14:06;;;;;;;3.08;0.73;;;;;;;;;;5081237;28;20044;-74
2022/07/27 00:16:32;;;;;;;1.85;0.70;;;;;;;;;;5083815;28;20138;-74
2022/07/27 00:18:58;;;;;;;2.60;0.77;;;;;;;;;;5081310;28;20036;-74
2022/07/27 00:21:25;;;;;;;5.68;0.80;;;;;;;;;;5084329;28;20031;-75
2022/07/27 00:23:51;;;;;;;3.80;0.80;;;;;;;;;;5084903;28;20033;-74
2022/07/27 00:26:17;;;;;;;4.88;0.90;;;;;;;;;;5088096;28;20023;-74
2022/07/27 00:28:43;;;;;;;6.15;0.77;;;;;;;;;;5085652;28;20059;-74
2022/07/27 00:31:09;;;;;;;2.17;0.70;;;;;;;;;;5087029;28;20032;-74
2022/07/27 00:33:35;;;;;;;2.75;0.80;;;;;;;;;;5082458;28;20092;-74
2022/07/27 00:36:01;;;;;;;3.75;0.80;;;;;;;;;;5089048;28;20036;-74
2022/07/27 00:38:28;;;;;;;3.03;0.65;;;;;;;;;;5076122;28;20051;-74
2022/07/27 00:40:54;;;;;;;2.30;0.80;;;;;;;;;;5084580;28;20036;-74
2022/07/27 00:43:20;;;;;;;5.30;1.08;;;;;;;;;;5086295;28;20043;-74
2022/07/27 00:45:46;;;;;;;6.20;0.80;;;;;;;;;;5085801;28;20036;-74
2022/07/27 00:48:12;;;;;;;6.68;0.80;;;;;;;;;;5085445;28;20139;-75
2022/07/27 00:50:40;;;;;;;2.33;0.77;;;;;;;;;;5086310;28;20115;-74
2022/07/27 00:53:07;;;;;;;9.20;1.02;;;;;;;;;;5086539;28;20067;-74
2022/07/27 00:55:33;;;;;;;4.05;0.93;;;;;;;;;;5086850;28;20036;-74
2022/07/27 00:58:00;;;;;;;5.20;1.10;;;;;;;;;;5086737;28;20055;-74
2022/07/27 01:00:27;;;;;;;3.40;1.35;;;;;;;;;;5087757;28;20020;-74
2022/07/27 01:02:53;;;;;;;6.15;2.22;;;;;;;;;;5089548;28;20040;-74
2022/07/27 01:05:19;;;;;;;5.22;2.47;;;;;;;;;;5087915;28;20562;-74
2022/07/27 01:07:45;;;;;;;6.53;2.72;;;;;;;;;;5088808;28;20783;-75
2022/07/27 01:10:11;;;;;;;5.13;2.05;;;;;;;;;;5087344;28;20593;-74
2022/07/27 01:12:37;;;;;;;5.47;1.70;;;;;;;;;;5082249;28;20130;-74
2022/07/27 01:15:03;;;;;;;5.43;1.80;;;;;;;;;;5085210;28;20043;-74
2022/07/27 01:17:30;;;;;;;3.78;1.48;;;;;;;;;;5082449;28;20511;-74
2022/07/27 01:19:57;;;;;;;5.85;1.20;;;;;;;;;;5085494;28;20036;-74
2022/07/27 01:22:23;;;;;;;6.72;1.40;;;;;;;;;;5083511;28;20385;-74
2022/07/27 01:24:52;;;;;;;2.15;0.90;;;;;;;;;;5086706;28;20040;-74
2022/07/27 01:27:18;;;;;;;6.75;1.30;;;;;;;;;;5088035;28;20028;-74
2022/07/27 01:29:44;;;;;;;3.70;1.00;;;;;;;;;;5086157;28;20047;-74
2022/07/27 01:32:10;;;;;;;6.60;1.00;;;;;;;;;;5077535;28;20463;-74
2022/07/27 01:34:36;;;;;;;5.80;1.20;;;;;;;;;;5079955;28;20040;-74
2022/07/27 01:37:02;;;;;;;5.20;1.23;;;;;;;;;;5063259;28;20516;-74
2022/07/27 01:39:29;;;;;;;8.63;1.63;;;;;;;;;;5079916;28;20107;-74
2022/07/27 01:41:55;;;;;;;4.30;1.20;;;;;;;;;;5083970;28;20063;-74
2022/07/27 01:44:21;;;;;;;6.40;1.08;;;;;;;;;;5086224;28;20043;-74
2022/07/27 01:46:47;;;;;;;4.57;1.05;;;;;;;;;;5086097;28;20102;-74
2022/07/27 01:49:13;;;;;;;5.40;0.93;;;;;;;;;;5085861;28;20464;-74
2022/07/27 01:51:39;;;;;;;3.58;0.90;;;;;;;;;;5086851;28;20024;-74
2022/07/27 01:54:05;;;;;;;3.85;0.93;;;;;;;;;;5080187;28;20044;-74
2022/07/27 01:56:31;;;;;;;5.07;0.80;;;;;;;;;;5073934;28;20082;-74
2022/07/27 01:58:57;;;;;;;4.63;1.25;;;;;;;;;;5084833;28;20040;-74
2022/07/27 02:01:23;;;;;;;5.47;1.25;;;;;;;;;;5080153;28;20020;-74
2022/07/27 02:03:49;;;;;;;4.50;0.98;;;;;;;;;;5082047;28;20040;-74
2022/07/27 02:06:16;;;;;;;3.25;0.80;;;;;;;;;;5080715;28;20031;-74
2022/07/27 02:08:42;;;;;;;4.07;0.80;;;;;;;;;;5085564;28;20068;-74
2022/07/27 02:13:52;;;;;;;5.10;0.88;;;;;;;;;;5085125;28;20533;-74
2022/07/27 02:16:19;;;;;;;3.65;0.60;;;;;;;;;;5083519;28;20028;-74
2022/07/27 02:18:45;;;;;;;3.88;1.00;;;;;;;;;;5084157;28;20045;-74
2022/07/27 02:21:12;;;;;;;2.65;0.90;;;;;;;;;;5086176;28;20035;-74
2022/07/27 02:23:39;;;;;;;2.53;0.70;;;;;;;;;;5086628;28;20107;-74
2022/07/27 02:26:05;;;;;;;3.17;0.80;;;;;;;;;;5084929;28;20036;-74
2022/07/27 02:28:32;;;;;;;4.15;0.70;;;;;;;;;;5085794;28;20024;-74
2022/07/27 02:30:58;;;;;;;2.53;0.60;;;;;;;;;;5083867;28;20064;-74
2022/07/27 02:33:24;;;;;;;3.20;0.80;;;;;;;;;;5084343;28;20040;-74
2022/07/27 02:35:50;;;;;;;3.00;0.60;;;;;;;;;;5085111;28;20039;-74
2022/07/27 02:38:16;;;;;;;5.65;0.85;;;;;;;;;;5077559;28;20032;-74
2022/07/27 02:40:42;;;;;;;3.22;0.98;;;;;;;;;;5084561;28;20032;-74
2022/07/27 02:43:08;;;;;;;2.75;0.75;;;;;;;;;;5084628;28;20032;-74
2022/07/27 02:45:34;;;;;;;3.78;1.00;;;;;;;;;;5085901;28;20077;-74
2022/07/27 02:48:00;;;;;;;3.45;0.73;;;;;;;;;;5085925;28;20031;-74
2022/07/27 02:50:26;;;;;;;1.50;0.57;;;;;;;;;;5085726;28;20036;-73
2022/07/27 02:52:52;;;;;;;5.53;0.88;;;;;;;;;;5083082;28;20062;-74
2022/07/27 02:55:18;;;;;;;2.70;0.80;;;;;;;;;;5083917;28;20752;-75
2022/07/27 02:57:44;;;;;;;4.53;0.93;;;;;;;;;;5082294;28;20051;-74
2022/07/27 03:00:12;;;;;;;4.38;0.90;;;;;;;;;;5082732;28;20031;-74
2022/07/27 03:02:38;;;;;;;2.42;0.77;;;;;;;;;;5082511;28;20430;-74
2022/07/27 03:05:04;;;;;;;6.38;0.75;;;;;;;;;;5080416;28;20032;-74
2022/07/27 03:07:30;;;;;;;2.85;0.80;;;;;;;;;;5083332;28;20028;-74
2022/07/27 03:09:56;;;;;;;2.05;0.70;;;;;;;;;;5082344;28;20024;-74
2022/07/27 03:12:22;;;;;;;2.55;0.70;;;;;;;;;;5084913;28;20020;-74
2022/07/27 03:14:49;;;;;;;3.22;0.80;;;;;;;;;;5084473;28;20032;-74
2022/07/27 03:17:15;;;;;;;2.83;0.80;;;;;;;;;;5080721;28;20059;-74
2022/07/27 03:19:41;;;;;;;4.50;0.73;;;;;;;;;;5084581;28;20038;-74
2022/07/27 03:22:07;;;;;;;4.05;0.77;;;;;;;;;;5081292;28;20054;-74
2022/07/27 03:24:33;;;;;;;8.80;0.90;;;;;;;;;;5085628;28;20446;-75
2022/07/27 03:26:59;;;;;;;2.58;0.60;;;;;;;;;;5083597;28;20066;-74
2022/07/27 03:29:25;;;;;;;5.85;0.77;;;;;;;;;;5085085;28;20429;-74
2022/07/27 03:31:51;;;;;;;2.95;0.73;;;;;;;;;;5085462;28;20089;-74
2022/07/27 03:34:17;;;;;;;2.70;0.73;;;;;;;;;;5084193;28;20055;-74
2022/07/27 03:36:43;;;;;;;2.63;0.80;;;;;;;;;;5084511;28;20031;-74
2022/07/27 03:39:09;;;;;;;3.53;0.90;;;;;;;;;;5081085;28;20028;-74
2022/07/27 03:41:35;;;;;;;4.55;1.08;;;;;;;;;;5083505;28;20107;-74
2022/07/27 03:44:01;;;;;;;6.45;0.80;;;;;;;;;;5085548;28;20044;-74
2022/07/27 03:46:27;;;;;;;4.70;0.80;;;;;;;;;;5084135;28;20642;-74
2022/07/27 03:48:55;;;;;;;7.05;1.40;;;;;;;;;;5083406;28;20059;-77
2022/07/27 03:51:21;;;;;;;4.43;1.15;;;;;;;;;;5081171;28;20044;-74
2022/07/27 03:53:47;;;;;;;4.65;1.20;;;;;;;;;;5085628;28;20042;-76
2022/07/27 03:56:14;;;;;;;7.10;2.05;;;;;;;;;;5085099;28;20765;-74
2022/07/27 03:58:40;;;;;;;8.40;1.80;;;;;;;;;;5087260;28;20052;-74
2022/07/27 04:01:06;;;;;;;4.82;1.50;;;;;;;;;;5068719;28;20093;-74
2022/07/27 04:03:32;;;;;;;9.80;1.70;;;;;;;;;;5069750;28;20135;-74
2022/07/27 04:05:58;;;;;;;7.95;1.60;;;;;;;;;;5085915;28;20044;-74
2022/07/27 04:08:24;;;;;;;8.32;2.05;;;;;;;;;;5085768;28;20086;-74
2022/07/27 04:10:50;;;;;;;5.70;1.73;;;;;;;;;;5088407;28;20032;-74
2022/07/27 04:13:17;;;;;;;7.15;1.90;;;;;;;;;;5088846;28;20042;-74
2022/07/27 04:15:43;;;;;;;6.30;1.63;;;;;;;;;;5088721;28;20028;-74
2022/07/27 04:18:09;;;;;;;8.43;1.67;;;;;;;;;;5089153;28;20197;-74
2022/07/27 04:20:35;;;;;;;6.65;1.40;;;;;;;;;;5083558;28;20132;-76
2022/07/27 04:23:01;;;;;;;8.10;1.20;;;;;;;;;;5068013;28;20046;-74
2022/07/27 04:25:27;;;;;;;2.85;1.05;;;;;;;;;;5084634;28;20047;-74
2022/07/27 04:27:53;;;;;;;5.18;1.10;;;;;;;;;;5088830;28;20035;-74
2022/07/27 04:30:19;;;;;;;6.63;0.95;;;;;;;;;;5083009;28;20035;-74
2022/07/27 04:32:46;;;;;;;5.45;1.38;;;;;;;;;;5086692;28;20036;-74
2022/07/27 04:35:12;;;;;;;5.78;1.63;;;;;;;;;;5083951;28;20043;-74
2022/07/27 04:37:38;;;;;;;6.45;1.50;;;;;;;;;;5087842;28;20490;-74
2022/07/27 04:40:06;;;;;;;9.68;1.35;;;;;;;;;;5085054;28;20032;-74
2022/07/27 04:42:32;;;;;;;6.57;1.63;;;;;;;;;;5083154;28;20024;-74
2022/07/27 04:44:58;;;;;;;8.57;1.67;;;;;;;;;;5083609;28;20844;-74
2022/07/27 04:47:25;;;;;;;6.95;2.08;;;;;;;;;;5085655;28;20131;-74
2022/07/27 04:49:51;;;;;;;7.18;1.95;;;;;;;;;;5082706;28;20032;-74
2022/07/27 04:52:17;;;;;;;9.98;2.25;;;;;;;;;;5083739;28;20049;-74
2022/07/27 04:54:43;;;;;;;8.52;1.60;;;;;;;;;;5069917;28;20032;-74
2022/07/27 04:57:09;;;;;;;6.97;1.25;;;;;;;;;;5083255;28;20127;-74
2022/07/27 04:59:35;;;;;;;9.13;2.72;;;;;;;;;;5088337;28;20040;-74
2022/07/27 05:02:01;;;;;;;9.00;3.28;;;;;;;;;;5087447;28;20039;-74
2022/07/27 05:04:27;;;;;;;15.40;2.97;;;;;;;;;;5083739;28;20032;-74
2022/07/27 05:06:53;;;;;;;10.35;2.92;;;;;;;;;;5084789;28;20387;-74
2022/07/27 05:09:19;;;;;;;14.20;4.43;;;;;;;;;;5079175;28;20032;-74
2022/07/27 05:11:45;;;;;;;11.13;3.80;;;;;;;;;;5083797;28;20047;-74
2022/07/27 05:14:11;;;;;;;12.68;2.78;;;;;;;;;;5085362;28;20423;-74
2022/07/27 05:16:39;;;;;;;6.88;2.03;;;;;;;;;;5086513;28;20032;-74
2022/07/27 05:19:05;;;;;;;7.70;2.25;;;;;;;;;;5088272;28;20036;-74
2022/07/27 05:21:31;;;;;;;15.95;2.95;;;;;;;;;;5084037;28;20077;-74
2022/07/27 05:23:58;;;;;;;10.18;2.50;;;;;;;;;;5082363;28;20037;-77
2022/07/27 05:26:24;;;;;;;7.97;1.98;;;;;;;;;;5079270;28;20063;-74
2022/07/27 05:28:50;;;;;;;8.80;2.15;;;;;;;;;;5079610;28;20087;-74
2022/07/27 05:31:17;;;;;;;7.18;2.28;;;;;;;;;;5087227;28;20042;-74
2022/07/27 05:33:44;;;;;;;10.68;1.90;;;;;;;;;;5086373;28;20127;-74
2022/07/27 05:36:10;;;;;;;10.65;2.40;;;;;;;;;;5081854;28;20055;-74
2022/07/27 05:38:39;;;;;;;8.10;2.83;;;;;;;;;;5068033;28;20039;-74
2022/07/27 05:41:06;;;;;;;16.00;2.70;;;;;;;;;;5083767;28;20036;-74
2022/07/27 05:43:32;;;;;;;12.23;2.63;;;;;;;;;;5085226;28;20024;-74
2022/07/27 05:45:58;;;;;;;9.57;2.00;;;;;;;;;;5082969;28;20032;-74
2022/07/27 05:48:24;;;;;;;10.40;2.88;;;;;;;;;;5058703;28;20494;-74
2022/07/27 05:50:50;;;;;;;10.73;2.78;;;;;;;;;;5087383;28;20043;-74
2022/07/27 05:53:16;;;;;;;12.88;2.72;;;;;;;;;;5082418;28;20028;-74
2022/07/27 05:55:42;;;;;;;13.57;2.67;;;;;;;;;;5087327;28;20487;-74
2022/07/27 05:58:08;;;;;;;10.65;2.67;;;;;;;;;;5084106;28;20062;-74
2022/07/27 06:00:35;;;;;;;9.38;3.28;;;;;;;;;;5084421;28;20047;-74
2022/07/27 06:03:01;;;;;;;10.65;2.25;;;;;;;;;;5084772;28;20038;-75
2022/07/27 06:05:27;;;;;;;9.23;2.33;;;;;;;;;;5077513;28;20028;-74
2022/07/27 06:07:59;;;;;;;10.57;2.00;;;;;;;;;;5082374;28;20101;-75
2022/07/27 06:10:28;;;;;;;6.93;1.90;;;;;;;;;;5081326;28;20117;-74
2022/07/27 06:12:55;;;;;;;12.60;3.42;;;;;;;;;;5083525;28;20027;-74
2022/07/27 06:15:21;;;;;;;7.85;2.28;;;;;;;;;;5083601;28;20468;-74
2022/07/27 06:17:49;;;;;;;9.05;2.28;;;;;;;;;;5083990;28;20485;-75
2022/07/27 06:20:15;;;;;;;9.60;2.22;;;;;;;;;;5077683;28;20031;-75
2022/07/27 06:22:44;;;;;;;8.80;1.75;;;;;;;;;;5086360;28;20042;-75
2022/07/27 06:25:11;;;;;;;11.70;2.10;;;;;;;;;;5087532;28;20495;-75
2022/07/27 06:27:37;;;;;;;6.20;1.95;;;;;;;;;;5085252;28;20115;-75
2022/07/27 06:30:04;;;;;;;9.77;2.13;;;;;;;;;;5079287;28;20102;-75
2022/07/27 06:32:30;;;;;;;9.55;1.60;;;;;;;;;;5081792;28;20056;-75
2022/07/27 06:34:56;;;;;;;6.47;1.60;;;;;;;;;;5084244;28;20119;-75
2022/07/27 06:37:22;;;;;;;2.65;0.93;;;;;;;;;;5084499;28;20028;-75
2022/07/27 06:39:48;;;;;;;8.63;1.65;;;;;;;;;;5085775;28;20111;-75
2022/07/27 06:42:14;;;;;;;8.07;1.25;;;;;;;;;;5085474;28;20047;-75
2022/07/27 06:44:40;;;;;;;10.02;1.83;;;;;;;;;;5083213;28;20040;-75
2022/07/27 06:47:06;;;;;;;9.00;1.33;;;;;;;;;;5086939;28;20054;-75
2022/07/27 06:49:33;;;;;;;7.35;1.50;;;;;;;;;;5084404;28;20484;-75
2022/07/27 06:51:59;;;;;;;13.10;1.60;;;;;;;;;;5085797;28;20548;-75
2022/07/27 06:54:25;;;;;;;8.80;1.33;;;;;;;;;;5082002;28;20036;-76
2022/07/27 06:56:51;;;;;;;6.55;1.48;;;;;;;;;;5084733;28;20093;-74
2022/07/27 06:59:17;;;;;;;5.15;1.23;;;;;;;;;;5084510;28;20032;-75
2022/07/27 07:01:43;;;;;;;8.40;1.33;;;;;;;;;;5081877;28;20097;-74
2022/07/27 07:04:09;;;;;;;6.60;1.40;;;;;;;;;;5083860;28;20036;-74
2022/07/27 07:06:35;;;;;;;7.55;1.17;;;;;;;;;;5085647;28;20978;-75
2022/07/27 07:09:01;;;;;;;7.57;1.50;;;;;;;;;;5068601;28;20035;-74
2022/07/27 07:11:27;;;;;;;6.57;1.23;;;;;;;;;;5086455;28;20064;-75
2022/07/27 07:13:53;;;;;;;3.67;1.17;;;;;;;;;;5079759;28;20067;-75
2022/07/27 07:16:19;;;;;;;5.97;1.35;;;;;;;;;;5083637;28;20397;-75
2022/07/27 07:18:45;;;;;;;5.53;1.20;;;;;;;;;;5084378;28;20032;-75
2022/07/27 07:21:11;;;;;;;5.80;1.05;;;;;;;;;;5086510;28;20055;-75
2022/07/27 07:23:37;;;;;;;3.78;1.08;;;;;;;;;;5083938;28;20056;-74
2022/07/27 07:26:03;;;;;;;2.15;0.73;;;;;;;;;;5083519;28;20114;-74
2022/07/27 07:28:29;;;;;;;6.07;1.20;;;;;;;;;;5082395;28;20126;-74
2022/07/27 07:30:56;;;;;;;5.40;1.45;;;;;;;;;;5083549;28;20538;-75
2022/07/27 07:33:22;;;;;;;4.93;1.42;;;;;;;;;;5089716;28;20151;-74
2022/07/27 07:35:48;;;;;;;4.72;1.00;;;;;;;;;;5073703;28;20127;-74
2022/07/27 07:38:14;;;;;;;3.85;1.08;;;;;;;;;;5089366;28;20032;-74
2022/07/27 07:40:40;;;;;;;3.63;1.20;;;;;;;;;;5086242;28;20036;-74
2022/07/27 07:43:06;;;;;;;2.78;1.05;;;;;;;;;;5090831;28;20509;-75
2022/07/27 07:45:34;;;;;;;3.85;0.98;;;;;;;;;;5088116;28;20368;-74
2022/07/27 07:48:00;;;;;;;7.03;1.00;;;;;;;;;;5087979;28;20028;-75
2022/07/27 07:50:26;;;;;;;3.97;1.63;;;;;;;;;;5086361;28;20051;-75
2022/07/27 07:52:53;;;;;;;7.90;1.50;;;;;;;;;;5085759;28;20111;-75
2022/07/27 07:55:22;;;;;;;3.47;0.93;;;;;;;;;;5087641;28;20036;-75
2022/07/27 07:57:48;;;;;;;4.18;1.05;;;;;;;;;;5086581;28;20054;-75
2022/07/27 08:00:15;;;;;;;7.30;0.98;;;;;;;;;;5086678;28;20043;-74
2022/07/27 08:02:51;;;;;;;7.30;1.20;;;;;;;;;;5084864;28;20077;-74
2022/07/27 08:05:17;;;;;;;3.35;1.00;;;;;;;;;;5087866;28;20028;-75
2022/07/27 08:07:45;;;;;;;4.97;1.08;;;;;;;;;;5091314;28;20035;-75
2022/07/27 08:10:12;;;;;;;6.05;1.40;;;;;;;;;;5087611;28;20032;-75
2022/07/27 08:12:39;;;;;;;10.70;1.10;;;;;;;;;;5087878;28;20486;-75
2022/07/27 08:15:05;;;;;;;14.48;1.65;;;;;;;;;;5084955;28;20058;-74
2022/07/27 08:17:31;;;;;;;6.65;1.45;;;;;;;;;;5086451;28;20459;-75
2022/07/27 08:19:57;;;;;;;8.75;1.67;;;;;;;;;;5083543;28;20036;-75
2022/07/27 08:22:24;;;;;;;7.65;1.73;;;;;;;;;;5085631;28;20024;-75
2022/07/27 08:24:50;;;;;;;5.32;1.30;;;;;;;;;;5093148;28;20036;-74
2022/07/27 08:27:16;;;;;;;10.02;1.73;;;;;;;;;;5081392;28;20036;-75
2022/07/27 08:29:42;;;;;;;8.43;1.50;;;;;;;;;;5088104;28;20143;-75
2022/07/27 08:32:08;;;;;;;7.10;1.42;;;;;;;;;;5083034;28;20047;-74
2022/07/27 08:34:34;;;;;;;4.97;1.40;;;;;;;;;;5087840;28;20040;-75
2022/07/27 08:37:00;;;;;;;4.70;1.45;;;;;;;;;;5088484;28;20031;-75
2022/07/27 08:39:26;;;;;;;9.70;2.10;;;;;;;;;;5070242;28;20153;-75
2022/07/27 08:41:54;;;;;;;6.90;1.50;;;;;;;;;;5086475;28;20081;-75
2022/07/27 08:44:23;;;;;;;8.10;1.13;;;;;;;;;;5084805;28;20044;-74
2022/07/27 08:46:49;;;;;;;2.80;0.80;;;;;;;;;;5087049;28;22102;-74
2022/07/27 08:49:15;;;;;;;5.43;1.00;;;;;;;;;;5085001;28;20064;-75
2022/07/27 08:51:43;;;;;;;7.93;0.90;;;;;;;;;;5092010;28;20032;-75
2022/07/27 08:54:09;;;;;;;5.72;1.10;;;;;;;;;;5083276;28;20082;-75
2022/07/27 08:56:35;;;;;;;4.57;1.20;;;;;;;;;;5085033;28;20695;-75
2022/07/27 08:59:01;;;;;;;4.82;1.13;;;;;;;;;;5086175;28;20089;-74
2022/07/27 09:01:27;;;;;;;6.93;1.10;;;;;;;;;;5087954;28;20028;-75
2022/07/27 09:03:53;;;;;;;6.85;1.10;;;;;;;;;;5085353;28;20123;-74
2022/07/27 09:06:39;;;;;;;5.75;0.80;;;;;;;;;;5087328;28;20115;-75
2022/07/27 09:09:05;;;;;;;7.93;1.13;;;;;;;;;;5086061;28;20036;-75
2022/07/27 09:11:31;;;;;;;6.47;1.05;;;;;;;;;;5068457;28;20085;-75
2022/07/27 09:14:04;;;;;;;5.03;0.90;;;;;;;;;;5090114;28;20032;-75
2022/07/27 09:16:31;;;;;;;6.40;0.90;;;;;;;;;;5086040;28;20016;-75
2022/07/27 09:18:59;;;;;;;8.80;1.05;;;;;;;;;;5085578;28;20032;-75
2022/07/27 09:21:25;;;;;;;6.00;1.15;;;;;;;;;;5083119;28;20028;-75
2022/07/27 09:23:53;;;;;;;3.22;0.75;;;;;;;;;;5081575;28;20240;-75
2022/07/27 09:26:20;;;;;;;4.45;1.17;;;;;;;;;;5087081;28;20526;-75
2022/07/27 09:28:47;;;;;;;10.98;1.33;;;;;;;;;;5084325;28;20076;-75
2022/07/27 09:31:14;;;;;;;3.72;1.08;;;;;;;;;;5064979;28;20059;-75
2022/07/27 09:33:50;;;;;;;6.40;1.13;;;;;;;;;;5082760;28;20380;-75
2022/07/27 09:36:17;;;;;;;4.00;0.90;;;;;;;;;;5084285;28;20036;-75
2022/07/27 09:38:53;;;;;;;10.40;1.27;;;;;;;;;;5082749;28;20115;-75
2022/07/27 09:41:20;;;;;;;8.82;1.15;;;;;;;;;;5084676;28;20060;-75
2022/07/27 09:43:47;;;;;;;7.15;1.20;;;;;;;;;;5088187;28;20040;-75
2022/07/27 09:46:13;;;;;;;6.97;1.17;;;;;;;;;;5085089;28;20050;-75
2022/07/27 09:48:40;;;;;;;2.75;0.80;;;;;;;;;;5086311;28;20122;-75
2022/07/27 09:51:07;;;;;;;6.72;1.08;;;;;;;;;;5084848;28;20048;-75
2022/07/27 09:53:34;;;;;;;5.65;1.48;;;;;;;;;;5089156;28;20066;-75
2022/07/27 09:56:12;;;;;;;5.78;0.95;;;;;;;;;;5085661;28;20040;-75
2022/07/27 09:58:41;;;;;;;3.50;1.02;;;;;;;;;;5082037;28;20080;-75
2022/07/27 10:01:11;;;;;;;6.07;1.15;;;;;;;;;;5080817;28;20853;-75
2022/07/27 10:03:38;;;;;;;7.23;0.93;;;;;;;;;;5084193;28;20153;-75
2022/07/27 10:06:04;;;;;;;8.00;1.88;;;;;;;;;;5084428;28;20281;-75
2022/07/27 10:08:31;;;;;;;3.50;1.15;;;;;;;;;;5085000;28;20032;-75
2022/07/27 10:10:57;;;;;;;3.33;1.10;;;;;;;;;;5085187;28;20028;-75
2022/07/27 10:13:26;;;;;;;5.40;1.10;;;;;;;;;;5086134;28;20181;-75
2022/07/27 10:15:53;;;;;;;5.35;0.90;;;;;;;;;;5083629;28;20028;-75
2022/07/27 10:18:22;;;;;;;6.25;1.20;;;;;;;;;;5085920;28;20030;-75
2022/07/27 10:20:48;;;;;;;4.97;1.15;;;;;;;;;;5078178;28;20670;-75
2022/07/27 10:23:26;;;;;;;2.55;0.93;;;;;;;;;;5082283;28;20028;-75
2022/07/27 10:26:11;;;;;;;8.35;1.20;;;;;;;;;;5084114;28;20043;-74
2022/07/27 10:28:48;;;;;;;4.45;0.93;;;;;;;;;;5084567;28;20036;-75
2022/07/27 10:31:16;;;;;;;4.38;0.90;;;;;;;;;;5084854;28;20032;-75
2022/07/27 10:33:47;;;;;;;6.22;1.08;;;;;;;;;;5086466;28;20046;-75
2022/07/27 10:36:14;;;;;;;3.05;1.00;;;;;;;;;;5082271;28;20061;-75
2022/07/27 10:38:45;;;;;;;4.57;1.25;;;;;;;;;;5085548;28;20071;-75
2022/07/27 10:41:22;;;;;;;3.17;0.98;;;;;;;;;;5084078;28;20102;-75
2022/07/27 10:43:50;;;;;;;4.60;0.90;;;;;;;;;;5080101;28;20113;-75
2022/07/27 10:46:20;;;;;;;2.08;0.82;;;;;;;;;;5084489;28;20620;-75
2022/07/27 10:48:46;;;;;;;3.83;1.08;;;;;;;;;;5085933;28;20044;-75
2022/07/27 10:51:14;;;;;;;5.70;1.13;;;;;;;;;;5083480;28;20035;-75
2022/07/27 10:53:41;;;;;;;5.30;1.20;;;;;;;;;;5083306;28;20574;-75
2022/07/27 10:56:08;;;;;;;5.18;0.90;;;;;;;;;;5082900;28;20024;-75
2022/07/27 10:58:34;;;;;;;3.63;1.17;;;;;;;;;;5083636;28;20452;-75
2022/07/27 11:01:05;;;;;;;3.53;0.90;;;;;;;;;;5084569;28;20034;-75
2022/07/27 11:03:36;;;;;;;4.50;1.10;;;;;;;;;;5083094;28;20027;-75
2022/07/27 11:06:09;;;;;;;4.85;1.00;;;;;;;;;;5083582;28;20074;-75
2022/07/27 11:08:36;;;;;;;7.25;1.10;;;;;;;;;;5084004;28;20055;-75
2022/07/27 11:11:02;;;;;;;4.65;1.00;;;;;;;;;;5085117;28;20068;-75
2022/07/27 11:13:29;;;;;;;6.75;1.40;;;;;;;;;;5084143;28;20078;-75
2022/07/27 11:15:56;;;;;;;5.45;0.80;;;;;;;;;;5084706;28;20045;-75
2022/07/27 11:18:29;;;;;;;4.78;1.00;;;;;;;;;;5083684;28;20043;-75
2022/07/27 11:21:14;;;;;;;6.47;0.90;;;;;;;;;;5084307;28;20036;-75
2022/07/27 11:23:40;;;;;;;4.72;0.90;;;;;;;;;;5084619;28;20814;-75
2022/07/27 11:26:07;;;;;;;3.22;0.80;;;;;;;;;;5080628;28;20193;-75
2022/07/27 11:28:34;;;;;;;11.13;1.20;;;;;;;;;;5081220;28;20105;-75
2022/07/27 11:31:00;;;;;;;13.07;1.33;;;;;;;;;;5083326;28;20626;-75
2022/07/27 11:33:27;;;;;;;6.40;1.30;;;;;;;;;;5079016;28;20554;-75
2022/07/27 11:35:55;;;;;;;4.65;1.17;;;;;;;;;;5080575;28;20479;-75
2022/07/27 11:38:21;;;;;;;4.85;1.20;;;;;;;;;;5084969;28;20439;-75
2022/07/27 11:40:51;;;;;;;3.45;0.88;;;;;;;;;;5081096;28;20032;-75
2022/07/27 11:43:33;;;;;;;6.75;1.00;;;;;;;;;;5084045;28;20031;-75
2022/07/27 11:46:18;;;;;;;9.88;0.90;;;;;;;;;;5079723;28;20499;-75
2022/07/27 11:48:49;;;;;;;8.55;1.00;;;;;;;;;;5082591;28;20043;-75
2022/07/27 11:51:16;;;;;;;16.85;1.50;;;;;;;;;;5083820;28;20028;-75
2022/07/27 11:53:42;;;;;;;9.00;1.88;;;;;;;;;;5078467;28;20071;-75
2022/07/27 11:56:08;;;;;;;3.58;1.27;;;;;;;;;;5080092;28;20062;-75
2022/07/27 11:58:54;;;;;;;5.47;1.02;;;;;;;;;;5081849;28;20055;-75
2022/07/27 12:01:27;;;;;;;4.13;1.05;;;;;;;;;;5080829;28;20031;-75
2022/07/27 12:04:11;;;;;;;4.07;1.27;;;;;;;;;;5082158;28;20081;-75
2022/07/27 12:06:38;;;;;;;7.95;1.00;;;;;;;;;;5081401;28;20040;-75
2022/07/27 12:09:05;;;;;;;3.88;0.93;;;;;;;;;;5080878;28;20028;-75
2022/07/27 12:12:04;;;;;;;17.35;1.70;;;;;;;;;;5079257;28;20032;-75
2022/07/27 12:14:34;;;;;;;5.05;0.98;;;;;;;;;;5054080;28;20052;-75
2022/07/27 12:17:07;;;;;;;4.13;1.05;;;;;;;;;;5081276;28;20496;-75
2022/07/27 12:19:33;;;;;;;6.40;0.90;;;;;;;;;;5083697;28;20043;-75
2022/07/27 12:22:00;;;;;;;3.10;0.80;;;;;;;;;;5087470;28;20036;-75
2022/07/27 12:24:36;;;;;;;4.63;1.30;;;;;;;;;;5085187;28;20495;-75
2022/07/27 12:27:04;;;;;;;3.80;1.08;;;;;;;;;;5088047;28;20111;-75
2022/07/27 12:29:30;;;;;;;3.40;1.20;;;;;;;;;;5084311;28;20032;-75
2022/07/27 12:32:00;;;;;;;14.48;1.15;;;;;;;;;;5082673;28;20774;-75
2022/07/27 12:34:31;;;;;;;8.00;1.20;;;;;;;;;;5084914;28;20034;-75
2022/07/27 12:36:57;;;;;;;4.22;1.17;;;;;;;;;;5087347;28;20064;-75
2022/07/27 12:39:27;;;;;;;4.63;1.10;;;;;;;;;;5087429;28;20032;-75
2022/07/27 12:42:03;;;;;;;2.22;0.80;;;;;;;;;;5087868;28;20040;-75
2022/07/27 12:44:33;;;;;;;5.43;0.90;;;;;;;;;;5085407;28;20095;-75
2022/07/27 12:49:58;;;;;;;6.85;1.20;;;;;;;;;;5088394;28;20113;-75
2022/07/27 12:52:24;;;;;;;10.80;1.20;;;;;;;;;;5084092;28;20107;-75
2022/07/27 12:54:50;;;;;;;3.10;0.93;;;;;;;;;;5087443;28;20035;-75
2022/07/27 12:57:17;;;;;;;9.85;1.00;;;;;;;;;;5085195;28;20052;-75
2022/07/27 12:59:46;;;;;;;14.40;1.00;;;;;;;;;;5092402;28;20613;-75
2022/07/27 13:02:13;;;;;;;4.15;0.80;;;;;;;;;;5088224;28;20036;-75
2022/07/27 13:04:39;;;;;;;10.88;1.42;;;;;;;;;;5089049;28;20067;-75
2022/07/27 13:07:05;;;;;;;5.97;1.00;;;;;;;;;;5090962;28;20031;-75
2022/07/27 13:09:31;;;;;;;4.53;0.80;;;;;;;;;;5084845;28;20028;-75
2022/07/27 13:11:57;;;;;;;4.45;1.13;;;;;;;;;;5091266;28;20044;-75
2022/07/27 13:14:23;;;;;;;4.28;0.90;;;;;;;;;;5068407;28;20040;-75
2022/07/27 13:16:49;;;;;;;5.68;1.23;;;;;;;;;;5090906;28;20042;-75
2022/07/27 13:19:15;;;;;;;6.95;1.10;;;;;;;;;;5082491;28;20079;-75
2022/07/27 13:21:41;;;;;;;10.10;1.40;;;;;;;;;;5089746;28;20059;-75
2022/07/27 13:24:08;;;;;;;5.50;1.17;;;;;;;;;;5083411;28;20078;-75
2022/07/27 13:26:35;;;;;;;3.35;0.60;;;;;;;;;;5088331;28;20059;-75
2022/07/27 13:29:01;;;;;;;8.35;1.05;;;;;;;;;;5084253;28;20132;-75
2022/07/27 13:31:27;;;;;;;4.47;0.90;;;;;;;;;;5085006;28;20028;-75
2022/07/27 13:33:54;;;;;;;3.78;1.00;;;;;;;;;;5085458;28;20072;-75
2022/07/27 13:36:20;;;;;;;5.70;0.98;;;;;;;;;;5090279;28;20051;-75
2022/07/27 13:38:46;;;;;;;5.75;1.42;;;;;;;;;;5083746;28;20071;-75
2022/07/27 13:41:12;;;;;;;4.57;1.05;;;;;;;;;;5083908;28;20028;-75
2022/07/27 13:43:38;;;;;;;3.60;1.27;;;;;;;;;;5088400;28;20028;-75
2022/07/27 13:46:07;;;;;;;5.10;1.05;;;;;;;;;;5083027;28;20040;-75
2022/07/27 13:48:33;;;;;;;5.95;1.10;;;;;;;;;;5088228;28;20134;-75
2022/07/27 13:50:59;;;;;;;5.25;1.42;;;;;;;;;;5086822;28;20032;-75
2022/07/27 13:53:25;;;;;;;5.32;1.10;;;;;;;;;;5084518;28;20035;-74
2022/07/27 13:55:51;;;;;;;4.55;1.10;;;;;;;;;;5084319;28;20047;-75
2022/07/27 13:58:17;;;;;;;3.97;1.20;;;;;;;;;;5080134;28;20036;-75
2022/07/27 14:00:44;;;;;;;4.40;1.25;;;;;;;;;;5083871;28;20070;-74
2022/07/27 14:03:10;;;;;;;6.60;1.40;;;;;;;;;;5083356;28;20059;-75
2022/07/27 14:05:36;;;;;;;6.82;1.65;;;;;;;;;;5085554;28;20524;-75
2022/07/27 14:08:03;;;;;;;7.00;1.10;;;;;;;;;;5085901;28;20035;-75
2022/07/27 14:10:38;;;;;;;11.48;1.25;;;;;;;;;;5084913;28;20028;-75
2022/07/27 14:13:05;;;;;;;3.97;0.82;;;;;;;;;;5085724;28;20093;-75
2022/07/27 14:15:31;;;;;;;5.20;1.10;;;;;;;;;;5083861;28;20028;-75
2022/07/27 14:17:57;;;;;;;3.88;1.20;;;;;;;;;;5084922;28;20016;-75
2022/07/27 14:20:23;;;;;;;3.92;1.00;;;;;;;;;;5084476;28;20135;-75
2022/07/27 14:22:49;;;;;;;18.88;1.95;;;;;;;;;;5084253;28;20120;-75
2022/07/27 14:25:15;;;;;;;9.70;1.63;;;;;;;;;;5084913;28;20554;-75
2022/07/27 14:27:41;;;;;;;6.47;1.35;;;;;;;;;;5080884;28;20044;-75
2022/07/27 14:30:07;;;;;;;5.97;1.05;;;;;;;;;;5082934;28;20463;-75
2022/07/27 14:32:34;;;;;;;2.85;0.80;;;;;;;;;;5082945;28;20027;-75
2022/07/27 14:35:00;;;;;;;4.28;1.10;;;;;;;;;;5086020;28;20528;-75
2022/07/27 14:37:26;;;;;;;3.72;1.25;;;;;;;;;;5080307;28;20032;-75
2022/07/27 14:39:52;;;;;;;4.35;0.80;;;;;;;;;;5084789;28;20694;-75
2022/07/27 14:42:20;;;;;;;5.60;1.20;;;;;;;;;;5083868;28;20024;-75
2022/07/27 14:44:47;;;;;;;4.03;1.20;;;;;;;;;;5078624;28;20035;-75
2022/07/27 14:47:13;;;;;;;4.25;0.80;;;;;;;;;;5083101;28;20089;-75